sensor_id;sensor_type;location;lat;lon;timestamp;pressure;altitude;pressure_sealevel;temperature;humidity
11124;BME280;5616;42.692;23.312;2023-02-18T00:01:17;95890.44;;;5.89;57.83
11124;BME280;5616;42.692;23.312;2023-02-18T00:03:44;95891.84;;;5.82;57.79
11124;BME280;5616;42.692;23.312;2023-02-18T00:06:14;95891.97;;;5.81;57.69
11124;BME280;5616;42.692;23.312;2023-02-18T00:08:43;95872.41;;;5.70;57.81
11124;BME280;5616;42.692;23.312;2023-02-18T00:11:10;95878.63;;;5.77;57.53
11124;BME280;5616;42.692;23.312;2023-02-18T00:13:37;95891.00;;;5.72;58.27
11124;BME280;5616;42.692;23.312;2023-02-18T00:16:06;95886.97;;;5.70;58.91
11124;BME280;5616;42.692;23.312;2023-02-18T00:18:33;95874.25;;;5.58;59.16
11124;BME280;5616;42.692;23.312;2023-02-18T00:21:03;95876.81;;;5.58;59.21
11124;BME280;5616;42.692;23.312;2023-02-18T00:23:32;95868.03;;;5.51;59.47
11124;BME280;5616;42.692;23.312;2023-02-18T00:26:00;95851.34;;;5.47;59.27
11124;BME280;5616;42.692;23.312;2023-02-18T00:28:27;95860.25;;;5.53;59.50
11124;BME280;5616;42.692;23.312;2023-02-18T00:30:53;95849.84;;;5.54;59.32
11124;BME280;5616;42.692;23.312;2023-02-18T00:33:20;95850.53;;;5.56;58.96
11124;BME280;5616;42.692;23.312;2023-02-18T00:35:47;95857.94;;;5.50;59.53
11124;BME280;5616;42.692;23.312;2023-02-18T00:38:14;95847.81;;;5.48;59.42
11124;BME280;5616;42.692;23.312;2023-02-18T00:40:43;95842.56;;;5.50;59.80
11124;BME280;5616;42.692;23.312;2023-02-18T00:43:10;95843.00;;;5.55;59.27
11124;BME280;5616;42.692;23.312;2023-02-18T00:45:36;95837.06;;;5.54;59.91
11124;BME280;5616;42.692;23.312;2023-02-18T00:48:03;95845.91;;;5.50;60.59
11124;BME280;5616;42.692;23.312;2023-02-18T00:50:30;95830.44;;;5.52;59.98
11124;BME280;5616;42.692;23.312;2023-02-18T00:52:57;95844.97;;;5.42;60.99
11124;BME280;5616;42.692;23.312;2023-02-18T00:55:24;95831.22;;;5.43;60.76
11124;BME280;5616;42.692;23.312;2023-02-18T00:57:52;95832.03;;;5.43;60.43
11124;BME280;5616;42.692;23.312;2023-02-18T01:00:19;95840.53;;;5.44;60.44
11124;BME280;5616;42.692;23.312;2023-02-18T01:02:46;95835.97;;;5.47;60.23
11124;BME280;5616;42.692;23.312;2023-02-18T01:05:13;95835.00;;;5.48;59.79
11124;BME280;5616;42.692;23.312;2023-02-18T01:07:40;95838.78;;;5.44;59.96
11124;BME280;5616;42.692;23.312;2023-02-18T01:10:07;95834.34;;;5.46;59.96
11124;BME280;5616;42.692;23.312;2023-02-18T01:12:34;95838.63;;;5.46;59.29
11124;BME280;5616;42.692;23.312;2023-02-18T01:15:03;95834.59;;;5.43;59.30
11124;BME280;5616;42.692;23.312;2023-02-18T01:17:30;95835.41;;;5.44;59.67
11124;BME280;5616;42.692;23.312;2023-02-18T01:19:57;95833.34;;;5.38;59.73
11124;BME280;5616;42.692;23.312;2023-02-18T01:22:25;95825.94;;;5.35;60.37
11124;BME280;5616;42.692;23.312;2023-02-18T01:24:52;95838.31;;;5.30;59.62
11124;BME280;5616;42.692;23.312;2023-02-18T01:27:19;95835.38;;;5.34;59.49
11124;BME280;5616;42.692;23.312;2023-02-18T01:29:46;95829.44;;;5.34;59.71
11124;BME280;5616;42.692;23.312;2023-02-18T01:32:14;95824.59;;;5.31;58.94
11124;BME280;5616;42.692;23.312;2023-02-18T01:34:41;95817.66;;;5.22;60.04
11124;BME280;5616;42.692;23.312;2023-02-18T01:37:07;95826.84;;;5.24;59.93
11124;BME280;5616;42.692;23.312;2023-02-18T01:39:34;95827.66;;;5.25;59.55
11124;BME280;5616;42.692;23.312;2023-02-18T01:42:01;95835.59;;;5.22;59.71
11124;BME280;5616;42.692;23.312;2023-02-18T01:44:28;95835.47;;;5.23;59.54
11124;BME280;5616;42.692;23.312;2023-02-18T01:46:55;95841.41;;;5.24;59.83
11124;BME280;5616;42.692;23.312;2023-02-18T01:49:27;95839.38;;;5.18;59.89
11124;BME280;5616;42.692;23.312;2023-02-18T01:51:59;95844.47;;;5.18;60.32
11124;BME280;5616;42.692;23.312;2023-02-18T01:54:30;95842.97;;;5.06;60.17
11124;BME280;5616;42.692;23.312;2023-02-18T01:57:00;95851.44;;;5.06;60.53
11124;BME280;5616;42.692;23.312;2023-02-18T01:59:30;95849.25;;;5.02;60.57
11124;BME280;5616;42.692;23.312;2023-02-18T02:01:58;95845.78;;;5.03;60.33
11124;BME280;5616;42.692;23.312;2023-02-18T02:04:29;95842.50;;;5.01;60.34
11124;BME280;5616;42.692;23.312;2023-02-18T02:06:56;95841.00;;;4.88;61.00
11124;BME280;5616;42.692;23.312;2023-02-18T02:09:25;95828.19;;;4.88;60.66
11124;BME280;5616;42.692;23.312;2023-02-18T02:12:24;95831.69;;;4.87;61.23
11124;BME280;5616;42.692;23.312;2023-02-18T02:15:05;95834.13;;;4.89;61.72
11124;BME280;5616;42.692;23.312;2023-02-18T02:17:41;95829.13;;;4.87;61.24
11124;BME280;5616;42.692;23.312;2023-02-18T02:20:37;95833.69;;;4.84;61.71
11124;BME280;5616;42.692;23.312;2023-02-18T02:26:43;95843.16;;;4.93;61.19
11124;BME280;5616;42.692;23.312;2023-02-18T02:35:43;95824.97;;;4.86;61.76
11124;BME280;5616;42.692;23.312;2023-02-18T02:38:18;95822.81;;;4.91;61.48
11124;BME280;5616;42.692;23.312;2023-02-18T02:40:53;95822.81;;;4.91;61.77
11124;BME280;5616;42.692;23.312;2023-02-18T02:43:29;95821.19;;;4.90;61.73
11124;BME280;5616;42.692;23.312;2023-02-18T02:46:03;95816.06;;;4.90;61.53
11124;BME280;5616;42.692;23.312;2023-02-18T02:48:37;95799.78;;;4.91;61.09
11124;BME280;5616;42.692;23.312;2023-02-18T02:51:12;95813.50;;;4.90;60.99
11124;BME280;5616;42.692;23.312;2023-02-18T02:53:42;95811.22;;;4.87;60.47
11124;BME280;5616;42.692;23.312;2023-02-18T02:56:13;95816.03;;;4.81;61.36
11124;BME280;5616;42.692;23.312;2023-02-18T02:58:41;95826.28;;;4.81;61.25
11124;BME280;5616;42.692;23.312;2023-02-18T03:01:20;95834.78;;;4.81;61.23
11124;BME280;5616;42.692;23.312;2023-02-18T03:07:03;95837.69;;;4.77;61.59
11124;BME280;5616;42.692;23.312;2023-02-18T03:09:42;95833.13;;;4.50;62.57
11124;BME280;5616;42.692;23.312;2023-02-18T03:12:19;95824.00;;;4.57;62.29
11124;BME280;5616;42.692;23.312;2023-02-18T03:14:53;95817.56;;;4.63;62.31
11124;BME280;5616;42.692;23.312;2023-02-18T03:17:25;95818.50;;;4.62;62.21
11124;BME280;5616;42.692;23.312;2023-02-18T03:19:56;95825.00;;;4.66;62.37
11124;BME280;5616;42.692;23.312;2023-02-18T03:22:28;95845.31;;;4.67;61.68
11124;BME280;5616;42.692;23.312;2023-02-18T03:24:58;95846.69;;;4.71;61.35
11124;BME280;5616;42.692;23.312;2023-02-18T03:27:29;95851.44;;;4.55;62.15
11124;BME280;5616;42.692;23.312;2023-02-18T03:30:02;95855.22;;;4.40;63.36
11124;BME280;5616;42.692;23.312;2023-02-18T03:32:31;95866.66;;;4.36;63.02
11124;BME280;5616;42.692;23.312;2023-02-18T03:35:04;95874.75;;;4.41;63.02
11124;BME280;5616;42.692;23.312;2023-02-18T03:37:37;95869.16;;;4.47;62.30
11124;BME280;5616;42.692;23.312;2023-02-18T03:40:06;95874.13;;;4.49;62.89
11124;BME280;5616;42.692;23.312;2023-02-18T03:42:36;95875.09;;;4.48;62.28
11124;BME280;5616;42.692;23.312;2023-02-18T03:45:05;95869.84;;;4.49;61.98
11124;BME280;5616;42.692;23.312;2023-02-18T03:47:32;95879.72;;;4.22;63.43
11124;BME280;5616;42.692;23.312;2023-02-18T03:49:59;95875.59;;;4.10;64.65
11124;BME280;5616;42.692;23.312;2023-02-18T03:52:26;95876.88;;;4.04;63.90
11124;BME280;5616;42.692;23.312;2023-02-18T03:54:54;95886.88;;;4.07;64.11
11124;BME280;5616;42.692;23.312;2023-02-18T03:57:21;95882.19;;;4.12;63.90
11124;BME280;5616;42.692;23.312;2023-02-18T03:59:47;95864.69;;;4.08;64.46
11124;BME280;5616;42.692;23.312;2023-02-18T04:02:14;95874.53;;;4.12;63.89
11124;BME280;5616;42.692;23.312;2023-02-18T04:04:41;95872.44;;;4.17;64.47
11124;BME280;5616;42.692;23.312;2023-02-18T04:07:08;95868.94;;;4.18;64.04
11124;BME280;5616;42.692;23.312;2023-02-18T04:09:36;95860.09;;;4.22;63.62
11124;BME280;5616;42.692;23.312;2023-02-18T04:12:04;95863.91;;;4.28;63.64
11124;BME280;5616;42.692;23.312;2023-02-18T04:14:31;95856.81;;;4.31;63.94
11124;BME280;5616;42.692;23.312;2023-02-18T04:16:59;95858.06;;;4.37;63.85
11124;BME280;5616;42.692;23.312;2023-02-18T04:19:26;95859.41;;;4.41;63.81
11124;BME280;5616;42.692;23.312;2023-02-18T04:21:53;95840.16;;;4.37;64.05
11124;BME280;5616;42.692;23.312;2023-02-18T04:24:19;95845.97;;;4.39;64.83
11124;BME280;5616;42.692;23.312;2023-02-18T04:26:46;95844.47;;;4.37;64.63
11124;BME280;5616;42.692;23.312;2023-02-18T04:29:14;95838.16;;;4.41;64.55
11124;BME280;5616;42.692;23.312;2023-02-18T04:31:41;95843.25;;;4.41;64.63
11124;BME280;5616;42.692;23.312;2023-02-18T04:34:08;95839.78;;;4.42;64.49
11124;BME280;5616;42.692;23.312;2023-02-18T04:36:35;95843.59;;;4.47;64.22
11124;BME280;5616;42.692;23.312;2023-02-18T04:39:02;95838.22;;;4.50;63.57
11124;BME280;5616;42.692;23.312;2023-02-18T04:41:28;95843.34;;;4.50;63.35
11124;BME280;5616;42.692;23.312;2023-02-18T04:43:55;95838.34;;;4.49;64.07
11124;BME280;5616;42.692;23.312;2023-02-18T04:46:25;95838.22;;;4.50;63.85
11124;BME280;5616;42.692;23.312;2023-02-18T04:48:52;95852.38;;;4.33;64.10
11124;BME280;5616;42.692;23.312;2023-02-18T04:51:19;95850.00;;;4.42;65.27
11124;BME280;5616;42.692;23.312;2023-02-18T04:53:45;95856.91;;;4.30;64.83
11124;BME280;5616;42.692;23.312;2023-02-18T04:56:12;95862.22;;;4.38;64.27
11124;BME280;5616;42.692;23.312;2023-02-18T04:58:39;95858.06;;;4.37;64.56
11124;BME280;5616;42.692;23.312;2023-02-18T05:01:06;95868.00;;;4.40;65.23
11124;BME280;5616;42.692;23.312;2023-02-18T05:03:34;95874.28;;;4.47;63.66
11124;BME280;5616;42.692;23.312;2023-02-18T05:06:01;95875.53;;;4.53;63.81
11124;BME280;5616;42.692;23.312;2023-02-18T05:08:28;95876.59;;;4.50;63.16
11124;BME280;5616;42.692;23.312;2023-02-18T05:10:55;95870.28;;;4.54;63.46
11124;BME280;5616;42.692;23.312;2023-02-18T05:13:21;95862.84;;;4.51;63.77
11124;BME280;5616;42.692;23.312;2023-02-18T05:15:48;95862.47;;;4.35;64.09
11124;BME280;5616;42.692;23.312;2023-02-18T05:18:15;95857.88;;;4.29;64.85
11124;BME280;5616;42.692;23.312;2023-02-18T05:20:44;95855.41;;;4.27;64.92
11124;BME280;5616;42.692;23.312;2023-02-18T05:23:10;95853.81;;;4.26;65.27
11124;BME280;5616;42.692;23.312;2023-02-18T05:25:37;95844.44;;;4.16;65.27
11124;BME280;5616;42.692;23.312;2023-02-18T05:28:04;95851.69;;;4.31;63.74
11124;BME280;5616;42.692;23.312;2023-02-18T05:30:31;95850.13;;;4.40;64.20
11124;BME280;5616;42.692;23.312;2023-02-18T05:32:57;95860.66;;;4.47;64.04
11124;BME280;5616;42.692;23.312;2023-02-18T05:35:24;95846.00;;;4.49;63.65
11124;BME280;5616;42.692;23.312;2023-02-18T05:37:52;95844.94;;;4.51;63.31
11124;BME280;5616;42.692;23.312;2023-02-18T05:40:19;95850.13;;;4.61;63.83
11124;BME280;5616;42.692;23.312;2023-02-18T05:42:46;95853.00;;;4.67;63.51
11124;BME280;5616;42.692;23.312;2023-02-18T05:45:13;95848.69;;;4.68;62.49
11124;BME280;5616;42.692;23.312;2023-02-18T05:47:40;95852.09;;;4.78;62.41
11124;BME280;5616;42.692;23.312;2023-02-18T05:50:07;95865.47;;;4.81;62.44
11124;BME280;5616;42.692;23.312;2023-02-18T05:52:34;95865.75;;;4.88;62.47
11124;BME280;5616;42.692;23.312;2023-02-18T05:55:02;95877.72;;;4.87;62.33
11124;BME280;5616;42.692;23.312;2023-02-18T05:57:29;95865.38;;;4.92;62.87
11124;BME280;5616;42.692;23.312;2023-02-18T05:59:56;95883.84;;;4.96;62.76
11124;BME280;5616;42.692;23.312;2023-02-18T06:02:23;95877.38;;;4.92;63.31
11124;BME280;5616;42.692;23.312;2023-02-18T06:04:50;95885.94;;;5.12;63.25
11124;BME280;5616;42.692;23.312;2023-02-18T06:07:17;95873.88;;;5.23;62.79
11124;BME280;5616;42.692;23.312;2023-02-18T06:09:45;95865.56;;;5.31;62.05
11124;BME280;5616;42.692;23.312;2023-02-18T06:12:13;95870.69;;;5.40;62.32
11124;BME280;5616;42.692;23.312;2023-02-18T06:14:40;95875.88;;;5.50;60.86
11124;BME280;5616;42.692;23.312;2023-02-18T06:17:07;95872.25;;;5.62;60.32
11124;BME280;5616;42.692;23.312;2023-02-18T06:19:34;95872.25;;;5.62;59.80
11124;BME280;5616;42.692;23.312;2023-02-18T06:22:01;95869.44;;;5.65;59.52
11124;BME280;5616;42.692;23.312;2023-02-18T06:24:28;95877.94;;;5.75;59.26
11124;BME280;5616;42.692;23.312;2023-02-18T06:26:54;95872.16;;;5.83;59.43
11124;BME280;5616;42.692;23.312;2023-02-18T06:29:23;95862.75;;;5.93;58.70
11124;BME280;5616;42.692;23.312;2023-02-18T06:31:50;95856.28;;;5.98;58.65
11124;BME280;5616;42.692;23.312;2023-02-18T06:34:17;95850.50;;;6.06;59.05
11124;BME280;5616;42.692;23.312;2023-02-18T06:36:43;95855.75;;;6.04;59.83
11124;BME280;5616;42.692;23.312;2023-02-18T06:39:10;95865.22;;;6.13;59.30
11124;BME280;5616;42.692;23.312;2023-02-18T06:41:37;95863.72;;;6.21;58.68
11124;BME280;5616;42.692;23.312;2023-02-18T06:44:05;95861.56;;;6.26;57.85
11124;BME280;5616;42.692;23.312;2023-02-18T06:46:33;95864.94;;;6.36;57.90
11124;BME280;5616;42.692;23.312;2023-02-18T06:49:00;95869.81;;;6.29;58.12
11124;BME280;5616;42.692;23.312;2023-02-18T06:51:27;95862.38;;;6.36;57.51
11124;BME280;5616;42.692;23.312;2023-02-18T06:53:53;95857.13;;;6.37;57.38
11124;BME280;5616;42.692;23.312;2023-02-18T06:56:20;95859.81;;;6.45;57.35
11124;BME280;5616;42.692;23.312;2023-02-18T06:58:47;95860.50;;;6.47;57.68
11124;BME280;5616;42.692;23.312;2023-02-18T07:01:14;95861.13;;;6.59;56.56
11124;BME280;5616;42.692;23.312;2023-02-18T07:03:42;95865.47;;;6.58;56.61
11124;BME280;5616;42.692;23.312;2023-02-18T07:06:09;95856.81;;;6.59;57.62
11124;BME280;5616;42.692;23.312;2023-02-18T07:08:35;95859.78;;;6.74;56.67
11124;BME280;5616;42.692;23.312;2023-02-18T07:11:03;95866.75;;;6.91;57.08
11124;BME280;5616;42.692;23.312;2023-02-18T07:13:30;95855.63;;;7.10;55.44
11124;BME280;5616;42.692;23.312;2023-02-18T07:15:57;95849.59;;;7.28;55.03
11124;BME280;5616;42.692;23.312;2023-02-18T07:18:24;95846.59;;;7.33;54.73
11124;BME280;5616;42.692;23.312;2023-02-18T07:20:52;95848.34;;;7.42;54.79
11124;BME280;5616;42.692;23.312;2023-02-18T07:23:19;95839.91;;;7.50;54.52
11124;BME280;5616;42.692;23.312;2023-02-18T07:25:46;95842.28;;;7.61;53.18
11124;BME280;5616;42.692;23.312;2023-02-18T07:28:12;95836.19;;;7.62;52.90
11124;BME280;5616;42.692;23.312;2023-02-18T07:30:39;95837.00;;;7.80;53.34
11124;BME280;5616;42.692;23.312;2023-02-18T07:33:06;95838.88;;;7.87;52.94
11124;BME280;5616;42.692;23.312;2023-02-18T07:35:33;95844.59;;;7.99;52.23
11124;BME280;5616;42.692;23.312;2023-02-18T07:38:01;95848.88;;;8.08;53.06
11124;BME280;5616;42.692;23.312;2023-02-18T07:40:28;95852.94;;;8.11;53.24
11124;BME280;5616;42.692;23.312;2023-02-18T07:42:55;95857.25;;;8.10;53.21
11124;BME280;5616;42.692;23.312;2023-02-18T07:45:22;95862.41;;;8.10;53.07
11124;BME280;5616;42.692;23.312;2023-02-18T07:47:48;95865.34;;;7.97;53.57
11124;BME280;5616;42.692;23.312;2023-02-18T07:50:15;95865.41;;;8.23;53.77
11124;BME280;5616;42.692;23.312;2023-02-18T07:52:42;95861.09;;;8.41;53.65
11124;BME280;5616;42.692;23.312;2023-02-18T07:55:10;95863.16;;;8.55;51.78
11124;BME280;5616;42.692;23.312;2023-02-18T07:57:37;95869.69;;;8.68;51.34
11124;BME280;5616;42.692;23.312;2023-02-18T08:00:22;95850.06;;;8.49;51.47
11124;BME280;5616;42.692;23.312;2023-02-18T08:02:49;95851.00;;;8.66;51.31
11124;BME280;5616;42.692;23.312;2023-02-18T08:05:15;95859.97;;;8.79;51.10
11124;BME280;5616;42.692;23.312;2023-02-18T08:07:42;95852.72;;;8.83;51.30
11124;BME280;5616;42.692;23.312;2023-02-18T08:10:10;95862.00;;;9.01;50.97
11124;BME280;5616;42.692;23.312;2023-02-18T08:12:37;95860.03;;;9.21;50.02
11124;BME280;5616;42.692;23.312;2023-02-18T08:15:04;95847.88;;;9.39;49.43
11124;BME280;5616;42.692;23.312;2023-02-18T08:17:31;95831.13;;;9.43;49.35
11124;BME280;5616;42.692;23.312;2023-02-18T08:19:58;95831.19;;;9.51;49.10
11124;BME280;5616;42.692;23.312;2023-02-18T08:22:25;95838.47;;;9.56;49.36
11124;BME280;5616;42.692;23.312;2023-02-18T08:24:53;95832.63;;;9.54;49.20
11124;BME280;5616;42.692;23.312;2023-02-18T08:27:22;95827.44;;;9.46;49.42
11124;BME280;5616;42.692;23.312;2023-02-18T08:29:49;95826.03;;;9.59;49.01
11124;BME280;5616;42.692;23.312;2023-02-18T08:32:16;95836.53;;;9.58;49.83
11124;BME280;5616;42.692;23.312;2023-02-18T08:34:43;95827.69;;;9.60;49.60
11124;BME280;5616;42.692;23.312;2023-02-18T08:37:09;95832.41;;;9.81;48.96
11124;BME280;5616;42.692;23.312;2023-02-18T08:39:37;95834.22;;;10.05;48.74
11124;BME280;5616;42.692;23.312;2023-02-18T08:42:04;95821.72;;;10.26;47.77
11124;BME280;5616;42.692;23.312;2023-02-18T08:44:32;95818.00;;;10.36;47.44
11124;BME280;5616;42.692;23.312;2023-02-18T08:46:59;95818.16;;;10.51;47.37
11124;BME280;5616;42.692;23.312;2023-02-18T08:49:26;95818.81;;;10.61;47.27
11124;BME280;5616;42.692;23.312;2023-02-18T08:51:53;95828.78;;;10.72;47.62
11124;BME280;5616;42.692;23.312;2023-02-18T08:54:20;95838.16;;;10.81;46.44
11124;BME280;5616;42.692;23.312;2023-02-18T08:56:47;95826.81;;;10.90;46.39
11124;BME280;5616;42.692;23.312;2023-02-18T08:59:13;95828.41;;;11.07;46.08
11124;BME280;5616;42.692;23.312;2023-02-18T09:01:41;95829.97;;;11.25;45.89
11124;BME280;5616;42.692;23.312;2023-02-18T09:04:08;95829.13;;;11.40;45.57
11124;BME280;5616;42.692;23.312;2023-02-18T09:06:36;95819.38;;;11.58;45.15
11124;BME280;5616;42.692;23.312;2023-02-18T09:09:04;95825.13;;;11.77;44.74
11124;BME280;5616;42.692;23.312;2023-02-18T09:11:31;95825.91;;;11.85;43.19
11124;BME280;5616;42.692;23.312;2023-02-18T09:13:58;95826.81;;;11.92;43.36
11124;BME280;5616;42.692;23.312;2023-02-18T09:16:25;95823.22;;;11.93;42.92
11124;BME280;5616;42.692;23.312;2023-02-18T09:18:54;95823.56;;;11.98;43.22
11124;BME280;5616;42.692;23.312;2023-02-18T09:21:21;95827.69;;;12.07;42.75
11124;BME280;5616;42.692;23.312;2023-02-18T09:23:49;95831.19;;;12.14;42.37
11124;BME280;5616;42.692;23.312;2023-02-18T09:26:18;95823.09;;;12.17;41.43
11124;BME280;5616;42.692;23.312;2023-02-18T09:28:47;95810.78;;;12.19;41.38
11124;BME280;5616;42.692;23.312;2023-02-18T09:31:16;95803.66;;;12.21;41.40
11124;BME280;5616;42.692;23.312;2023-02-18T09:33:46;95806.53;;;12.26;41.35
11124;BME280;5616;42.692;23.312;2023-02-18T09:36:15;95806.88;;;12.23;42.19
11124;BME280;5616;42.692;23.312;2023-02-18T09:38:42;95772.59;;;12.21;42.46
11124;BME280;5616;42.692;23.312;2023-02-18T09:41:15;95793.75;;;12.48;42.61
11124;BME280;5616;42.692;23.312;2023-02-18T09:43:47;95791.63;;;12.66;41.14
11124;BME280;5616;42.692;23.312;2023-02-18T09:46:18;95786.53;;;12.72;41.20
11124;BME280;5616;42.692;23.312;2023-02-18T09:48:47;95794.13;;;13.11;40.32
11124;BME280;5616;42.692;23.312;2023-02-18T09:51:16;95793.22;;;13.33;40.59
11124;BME280;5616;42.692;23.312;2023-02-18T09:53:44;95800.28;;;13.39;40.28
11124;BME280;5616;42.692;23.312;2023-02-18T09:56:13;95789.19;;;13.45;39.67
11124;BME280;5616;42.692;23.312;2023-02-18T09:58:42;95775.22;;;13.46;38.97
11124;BME280;5616;42.692;23.312;2023-02-18T10:01:14;95784.88;;;13.53;38.99
11124;BME280;5616;42.692;23.312;2023-02-18T10:03:42;95777.09;;;13.53;38.49
11124;BME280;5616;42.692;23.312;2023-02-18T10:06:14;95775.84;;;13.63;38.34
11124;BME280;5616;42.692;23.312;2023-02-18T10:08:45;95784.47;;;13.85;38.28
11124;BME280;5616;42.692;23.312;2023-02-18T10:11:15;95767.09;;;14.06;37.51
11124;BME280;5616;42.692;23.312;2023-02-18T10:13:43;95750.84;;;14.19;37.05
11124;BME280;5616;42.692;23.312;2023-02-18T10:16:15;95758.66;;;14.40;37.54
11124;BME280;5616;42.692;23.312;2023-02-18T10:18:44;95753.28;;;14.69;36.27
11124;BME280;5616;42.692;23.312;2023-02-18T10:21:15;95759.03;;;14.93;34.47
11124;BME280;5616;42.692;23.312;2023-02-18T10:23:51;95752.69;;;15.02;34.19
11124;BME280;5616;42.692;23.312;2023-02-18T10:26:19;95747.22;;;15.31;34.23
11124;BME280;5616;42.692;23.312;2023-02-18T10:28:46;95744.94;;;15.49;34.18
11124;BME280;5616;42.692;23.312;2023-02-18T10:31:17;95738.63;;;15.30;34.95
11124;BME280;5616;42.692;23.312;2023-02-18T10:33:51;95742.41;;;15.21;35.83
11124;BME280;5616;42.692;23.312;2023-02-18T10:36:29;95732.31;;;15.12;34.96
11124;BME280;5616;42.692;23.312;2023-02-18T10:39:20;95732.53;;;15.10;34.61
11124;BME280;5616;42.692;23.312;2023-02-18T10:41:56;95724.59;;;15.25;34.38
11124;BME280;5616;42.692;23.312;2023-02-18T10:44:32;95719.47;;;15.38;33.78
11124;BME280;5616;42.692;23.312;2023-02-18T10:47:13;95712.13;;;15.48;33.79
11124;BME280;5616;42.692;23.312;2023-02-18T10:49:57;95707.50;;;15.50;32.92
11124;BME280;5616;42.692;23.312;2023-02-18T10:52:28;95697.97;;;15.83;33.34
11124;BME280;5616;42.692;23.312;2023-02-18T10:55:02;95703.63;;;16.26;33.02
11124;BME280;5616;42.692;23.312;2023-02-18T10:57:31;95705.41;;;16.52;32.91
11124;BME280;5616;42.692;23.312;2023-02-18T11:00:00;95705.84;;;16.62;32.82
11124;BME280;5616;42.692;23.312;2023-02-18T11:02:36;95697.44;;;16.60;31.75
11124;BME280;5616;42.692;23.312;2023-02-18T11:05:17;95684.78;;;16.44;32.00
11124;BME280;5616;42.692;23.312;2023-02-18T11:07:47;95683.78;;;16.38;31.24
11124;BME280;5616;42.692;23.312;2023-02-18T11:10:22;95685.97;;;16.41;30.87
11124;BME280;5616;42.692;23.312;2023-02-18T11:12:51;95684.38;;;16.60;31.26
11124;BME280;5616;42.692;23.312;2023-02-18T11:15:22;95674.16;;;16.65;29.97
11124;BME280;5616;42.692;23.312;2023-02-18T11:17:50;95686.97;;;16.47;30.25
11124;BME280;5616;42.692;23.312;2023-02-18T11:20:28;95668.56;;;16.35;29.92
11124;BME280;5616;42.692;23.312;2023-02-18T11:23:14;95658.34;;;16.14;30.00
11124;BME280;5616;42.692;23.312;2023-02-18T11:25:54;95657.31;;;16.02;30.81
11124;BME280;5616;42.692;23.312;2023-02-18T11:31:09;95655.91;;;15.86;30.64
11124;BME280;5616;42.692;23.312;2023-02-18T11:33:39;95644.91;;;15.84;31.57
11124;BME280;5616;42.692;23.312;2023-02-18T11:36:21;95639.06;;;15.76;32.58
11124;BME280;5616;42.692;23.312;2023-02-18T11:38:51;95620.66;;;15.90;31.22
11124;BME280;5616;42.692;23.312;2023-02-18T11:41:27;95621.47;;;15.98;31.86
11124;BME280;5616;42.692;23.312;2023-02-18T11:43:57;95628.06;;;16.07;31.02
11124;BME280;5616;42.692;23.312;2023-02-18T11:46:25;95617.88;;;16.12;31.48
11124;BME280;5616;42.692;23.312;2023-02-18T11:48:53;95632.88;;;16.23;30.94
11124;BME280;5616;42.692;23.312;2023-02-18T11:51:23;95630.44;;;16.28;31.24
11124;BME280;5616;42.692;23.312;2023-02-18T11:53:59;95614.22;;;16.39;31.20
11124;BME280;5616;42.692;23.312;2023-02-18T11:56:30;95606.75;;;16.49;30.51
11124;BME280;5616;42.692;23.312;2023-02-18T11:58:59;95601.34;;;16.57;29.85
11124;BME280;5616;42.692;23.312;2023-02-18T12:01:37;95594.75;;;16.61;30.81
11124;BME280;5616;42.692;23.312;2023-02-18T12:04:11;95599.91;;;16.74;31.01
11124;BME280;5616;42.692;23.312;2023-02-18T12:06:44;95585.84;;;16.82;30.44
11124;BME280;5616;42.692;23.312;2023-02-18T12:09:21;95591.47;;;16.85;31.48
11124;BME280;5616;42.692;23.312;2023-02-18T12:11:53;95587.88;;;16.80;30.64
11124;BME280;5616;42.692;23.312;2023-02-18T12:14:22;95591.88;;;16.82;31.82
11124;BME280;5616;42.692;23.312;2023-02-18T12:17:18;95586.44;;;16.84;30.85
11124;BME280;5616;42.692;23.312;2023-02-18T12:20:09;95591.28;;;16.80;32.50
11124;BME280;5616;42.692;23.312;2023-02-18T12:22:42;95579.28;;;16.66;31.92
11124;BME280;5616;42.692;23.312;2023-02-18T12:25:21;95577.84;;;16.70;33.12
11124;BME280;5616;42.692;23.312;2023-02-18T12:27:58;95583.69;;;16.66;32.88
11124;BME280;5616;42.692;23.312;2023-02-18T12:30:48;95574.09;;;16.53;33.46
11124;BME280;5616;42.692;23.312;2023-02-18T12:33:27;95559.59;;;16.70;32.61
11124;BME280;5616;42.692;23.312;2023-02-18T12:36:08;95552.94;;;16.81;32.93
11124;BME280;5616;42.692;23.312;2023-02-18T12:38:52;95553.97;;;16.73;33.46
11124;BME280;5616;42.692;23.312;2023-02-18T12:41:38;95549.59;;;16.67;32.48
11124;BME280;5616;42.692;23.312;2023-02-18T12:44:20;95545.78;;;16.63;32.38
11124;BME280;5616;42.692;23.312;2023-02-18T12:47:06;95543.59;;;16.67;31.65
11124;BME280;5616;42.692;23.312;2023-02-18T12:50:15;95541.78;;;16.61;31.68
11124;BME280;5616;42.692;23.312;2023-02-18T12:52:59;95542.00;;;16.59;31.86
11124;BME280;5616;42.692;23.312;2023-02-18T12:55:43;95531.75;;;16.64;31.73
11124;BME280;5616;42.692;23.312;2023-02-18T12:58:25;95530.09;;;16.76;31.21
11124;BME280;5616;42.692;23.312;2023-02-18T13:01:15;95527.25;;;16.84;32.16
11124;BME280;5616;42.692;23.312;2023-02-18T13:04:12;95532.63;;;16.89;32.46
11124;BME280;5616;42.692;23.312;2023-02-18T13:07:07;95534.41;;;16.95;32.40
11124;BME280;5616;42.692;23.312;2023-02-18T13:09:48;95538.44;;;16.91;31.44
11124;BME280;5616;42.692;23.312;2023-02-18T13:12:22;95534.41;;;16.95;31.27
11124;BME280;5616;42.692;23.312;2023-02-18T13:14:59;95530.13;;;17.07;31.51
11124;BME280;5616;42.692;23.312;2023-02-18T13:17:33;95537.97;;;17.07;31.53
11124;BME280;5616;42.692;23.312;2023-02-18T13:20:04;95538.19;;;16.99;31.60
11124;BME280;5616;42.692;23.312;2023-02-18T13:22:32;95531.53;;;17.10;31.69
11124;BME280;5616;42.692;23.312;2023-02-18T13:25:00;95533.53;;;17.15;32.04
11124;BME280;5616;42.692;23.312;2023-02-18T13:27:32;95538.53;;;17.09;32.36
11124;BME280;5616;42.692;23.312;2023-02-18T13:30:16;95537.97;;;17.07;32.76
11124;BME280;5616;42.692;23.312;2023-02-18T13:32:52;95531.75;;;17.02;33.42
11124;BME280;5616;42.692;23.312;2023-02-18T13:35:28;95535.47;;;16.88;34.02
11124;BME280;5616;42.692;23.312;2023-02-18T13:38:12;95538.50;;;16.85;34.06
11124;BME280;5616;42.692;23.312;2023-02-18T13:40:45;95534.84;;;16.86;33.98